createdAt,value
2022-10-26T00:00:10.486Z,8.42
2022-10-26T00:01:10.559Z,8.44
2022-10-26T00:02:10.705Z,8.52
2022-10-26T00:03:10.470Z,8.52
2022-10-26T00:04:10.458Z,8.36
2022-10-26T00:05:10.464Z,8.34
2022-10-26T00:06:10.440Z,8.41
2022-10-26T00:07:11.104Z,8.46
2022-10-26T00:08:10.432Z,8.42
2022-10-26T00:09:10.448Z,8.37
2022-10-26T00:10:10.411Z,8.36
2022-10-26T00:11:10.416Z,8.28
2022-10-26T00:12:10.401Z,8.31
2022-10-26T00:13:10.388Z,8.27
2022-10-26T00:14:11.395Z,8.41
2022-10-26T00:15:10.382Z,8.34
2022-10-26T00:16:10.385Z,8.38
2022-10-26T00:17:10.359Z,8.28
2022-10-26T00:18:10.349Z,8.34
2022-10-26T00:19:10.345Z,8.33
2022-10-26T00:20:10.343Z,8.34
2022-10-26T00:21:10.355Z,8.37
2022-10-26T00:22:10.323Z,8.38
2022-10-26T00:23:10.316Z,8.36
2022-10-26T00:24:10.319Z,8.36
2022-10-26T00:25:10.308Z,8.27
2022-10-26T00:26:10.308Z,8.27
2022-10-26T00:27:10.281Z,8.19
2022-10-26T00:29:48.457Z,8.13
2022-10-26T00:30:48.443Z,8.05
2022-10-26T00:31:49.546Z,8.01
2022-10-26T00:32:49.531Z,8.03
2022-10-26T00:33:50.187Z,8.01
2022-10-26T00:34:49.532Z,7.97
2022-10-26T00:35:49.495Z,8.01
2022-10-26T00:36:49.527Z,7.98
2022-10-26T00:37:50.315Z,8.00
2022-10-26T00:38:49.694Z,8.05
2022-10-26T00:39:49.490Z,8.08
2022-10-26T00:40:49.560Z,8.12
2022-10-26T00:41:49.461Z,8.09
2022-10-26T00:42:49.702Z,8.08
2022-10-26T00:43:49.437Z,8.03
2022-10-26T00:44:49.431Z,8.03
2022-10-26T00:45:49.416Z,8.06
2022-10-26T00:46:49.408Z,8.03
2022-10-26T00:47:49.407Z,8.16
2022-10-26T00:48:49.437Z,8.08
2022-10-26T00:49:49.403Z,8.10
2022-10-26T00:50:49.402Z,8.09
2022-10-26T00:51:49.368Z,8.13
2022-10-26T00:52:49.744Z,8.13
2022-10-26T00:53:49.357Z,8.09
2022-10-26T00:54:49.358Z,8.09
2022-10-26T00:55:49.344Z,8.16
2022-10-26T00:56:49.330Z,8.19
2022-10-26T00:57:49.327Z,8.20
2022-10-26T00:58:49.312Z,8.18
2022-10-26T00:59:49.339Z,8.24
2022-10-26T01:00:50.182Z,8.24
2022-10-26T01:01:49.391Z,8.26
2022-10-26T01:02:49.493Z,8.33
2022-10-26T01:03:49.327Z,8.28
2022-10-26T01:04:50.117Z,8.30
2022-10-26T01:05:49.255Z,8.26
2022-10-26T01:06:50.123Z,8.31
2022-10-26T01:07:50.709Z,8.33
2022-10-26T01:08:49.293Z,8.34
2022-10-26T01:09:49.261Z,8.30
2022-10-26T01:10:49.221Z,8.34
2022-10-26T01:11:49.215Z,8.34
2022-10-26T01:12:49.196Z,8.42
2022-10-26T01:13:49.200Z,8.36
2022-10-26T01:14:49.183Z,8.36
2022-10-26T01:15:49.186Z,8.46
2022-10-26T01:16:49.163Z,8.53
2022-10-26T01:17:49.365Z,8.55
2022-10-26T01:18:49.141Z,8.55
2022-10-26T01:19:49.145Z,8.55
2022-10-26T01:20:49.148Z,8.52
2022-10-26T01:21:49.149Z,8.48
2022-10-26T01:22:49.121Z,8.60
2022-10-26T01:23:49.129Z,8.49
2022-10-26T01:24:49.099Z,8.60
2022-10-26T01:25:49.086Z,8.52
2022-10-26T01:26:49.124Z,8.45
2022-10-26T01:27:49.321Z,8.55
2022-10-26T01:28:49.081Z,8.53
2022-10-26T01:29:49.075Z,8.61
2022-10-26T01:30:49.046Z,8.69
2022-10-26T01:31:49.044Z,8.60
2022-10-26T01:32:49.043Z,8.61
2022-10-26T01:33:49.032Z,8.53
2022-10-26T01:34:49.023Z,8.51
2022-10-26T01:35:49.007Z,8.48
2022-10-26T01:36:49.021Z,8.51
2022-10-26T01:37:49.305Z,8.46
2022-10-26T01:38:48.992Z,8.49
2022-10-26T01:39:48.987Z,8.55
2022-10-26T01:40:48.973Z,8.53
2022-10-26T01:41:48.968Z,8.51
2022-10-26T01:42:48.956Z,8.51
2022-10-26T01:43:50.651Z,8.48
2022-10-26T01:44:48.951Z,8.48
2022-10-26T01:45:48.940Z,8.52
2022-10-26T01:46:48.928Z,8.44
2022-10-26T01:47:49.137Z,8.49
2022-10-26T01:48:48.911Z,8.46
2022-10-26T01:49:48.898Z,8.36
2022-10-26T01:50:48.884Z,8.38
2022-10-26T01:51:48.880Z,8.41
2022-10-26T01:52:48.877Z,8.42
2022-10-26T01:53:48.884Z,8.46
2022-10-26T01:54:49.614Z,8.48
2022-10-26T01:55:48.864Z,8.42
2022-10-26T01:56:48.836Z,8.41
2022-10-26T01:57:49.104Z,8.38
2022-10-26T01:58:48.835Z,8.33
2022-10-26T01:59:49.626Z,8.33
2022-10-26T02:00:48.817Z,8.41
2022-10-26T02:01:48.918Z,8.28
2022-10-26T02:02:48.809Z,8.48
2022-10-26T02:03:48.819Z,8.45
2022-10-26T02:04:48.786Z,8.34
2022-10-26T02:05:48.782Z,8.37
2022-10-26T02:06:48.757Z,8.37
2022-10-26T02:07:49.023Z,8.41
2022-10-26T02:08:48.745Z,8.34
2022-10-26T02:09:48.755Z,8.36
2022-10-26T02:10:48.732Z,8.33
2022-10-26T02:11:48.747Z,8.23
2022-10-26T02:12:48.704Z,8.36
2022-10-26T02:13:48.719Z,8.30
2022-10-26T02:14:48.699Z,8.33
2022-10-26T02:15:48.687Z,8.31
2022-10-26T02:16:48.672Z,8.36
2022-10-26T02:17:48.925Z,8.34
2022-10-26T02:18:48.668Z,8.26
2022-10-26T02:19:48.648Z,8.37
2022-10-26T02:20:48.650Z,8.41
2022-10-26T02:21:48.644Z,8.37
2022-10-26T02:22:48.635Z,8.46
2022-10-26T02:23:48.618Z,8.48
2022-10-26T02:24:48.609Z,8.41
2022-10-26T02:25:48.603Z,8.51
2022-10-26T02:26:48.586Z,8.52
2022-10-26T02:27:48.831Z,8.38
2022-10-26T02:28:49.582Z,8.34
2022-10-26T02:29:48.573Z,8.37
2022-10-26T02:30:48.555Z,8.30
2022-10-26T02:31:48.558Z,8.36
2022-10-26T02:32:48.543Z,8.37
2022-10-26T02:34:48.524Z,8.49
2022-10-26T02:35:48.527Z,8.51
2022-10-26T02:36:48.513Z,8.48
2022-10-26T02:37:49.433Z,8.48
2022-10-26T02:38:48.498Z,8.52
2022-10-26T02:39:48.490Z,8.53
2022-10-26T02:40:48.511Z,8.51
2022-10-26T02:41:48.484Z,8.52
2022-10-26T02:42:48.471Z,8.48
2022-10-26T02:43:48.462Z,8.49
2022-10-26T02:44:48.457Z,8.53
2022-10-26T02:45:48.446Z,8.51
2022-10-26T02:46:48.440Z,8.53
2022-10-26T02:47:48.895Z,8.51
2022-10-26T02:48:49.249Z,8.44
2022-10-26T02:49:48.412Z,8.52
2022-10-26T02:50:48.401Z,8.56
2022-10-26T02:52:48.893Z,8.49
2022-10-26T02:53:48.371Z,8.49
2022-10-26T02:54:48.380Z,8.48
2022-10-26T02:55:48.366Z,8.49
2022-10-26T02:56:48.353Z,8.45
2022-10-26T02:57:48.337Z,8.52
2022-10-26T02:58:48.355Z,8.48
2022-10-26T02:59:48.326Z,8.53
2022-10-26T03:00:48.319Z,8.45
2022-10-26T03:01:48.349Z,8.52
2022-10-26T03:02:48.756Z,8.46
2022-10-26T03:03:48.381Z,8.52
2022-10-26T03:04:48.283Z,8.46
2022-10-26T03:05:48.286Z,8.51
2022-10-26T03:06:48.268Z,8.48
2022-10-26T03:07:48.254Z,8.53
2022-10-26T03:08:48.243Z,8.49
2022-10-26T03:09:48.242Z,8.56
2022-10-26T03:10:48.245Z,8.61
2022-10-26T03:11:48.229Z,8.55
2022-10-26T03:12:48.554Z,8.46
2022-10-26T03:13:48.213Z,8.46
2022-10-26T03:14:48.197Z,8.49
2022-10-26T03:15:48.189Z,8.45
2022-10-26T03:16:48.216Z,8.44
2022-10-26T03:17:48.425Z,8.46
2022-10-26T03:18:48.165Z,8.55
2022-10-26T03:19:48.173Z,8.48
2022-10-26T03:20:48.161Z,8.52
2022-10-26T03:21:48.152Z,8.52
2022-10-26T03:22:48.144Z,8.46
2022-10-26T03:23:48.129Z,8.51
2022-10-26T03:24:48.120Z,8.53
2022-10-26T03:25:48.119Z,8.49
2022-10-26T03:26:48.124Z,8.48
2022-10-26T03:27:48.331Z,8.48
2022-10-26T03:28:48.099Z,8.45
2022-10-26T03:29:48.078Z,8.36
2022-10-26T03:30:48.075Z,8.34
2022-10-26T03:31:48.070Z,8.26
2022-10-26T03:32:48.054Z,8.26
2022-10-26T03:33:48.139Z,8.15
2022-10-26T03:34:48.046Z,8.38
2022-10-26T03:35:48.032Z,8.38
2022-10-26T03:36:48.022Z,8.42
2022-10-26T03:37:48.351Z,8.45
2022-10-26T03:38:48.033Z,8.45
2022-10-26T03:39:48.007Z,8.45
2022-10-26T03:40:47.996Z,8.48
2022-10-26T03:41:48.005Z,8.55
2022-10-26T03:42:48.307Z,8.49
2022-10-26T03:43:47.964Z,8.49
2022-10-26T03:44:47.957Z,8.52
2022-10-26T03:45:47.960Z,8.51
2022-10-26T03:46:47.947Z,8.55
2022-10-26T03:47:47.950Z,8.49
2022-10-26T03:48:47.925Z,8.51
2022-10-26T03:49:47.921Z,8.60
2022-10-26T03:50:47.920Z,8.53
2022-10-26T03:51:47.905Z,8.60
2022-10-26T03:52:48.346Z,8.53
2022-10-26T03:53:47.893Z,8.66
2022-10-26T03:54:47.888Z,8.66
2022-10-26T03:55:47.870Z,8.66
2022-10-26T03:56:51.344Z,8.73
2022-10-26T03:57:50.648Z,8.81
2022-10-26T03:58:48.252Z,8.79
2022-10-26T03:59:47.845Z,8.81
2022-10-26T04:00:47.843Z,8.76
2022-10-26T04:01:47.917Z,8.78
2022-10-26T04:02:48.257Z,8.81
2022-10-26T04:03:47.873Z,8.91
2022-10-26T04:04:47.800Z,8.71
2022-10-26T04:05:47.813Z,8.81
2022-10-26T04:06:47.827Z,8.73
2022-10-26T04:07:48.283Z,8.73
2022-10-26T04:08:47.778Z,8.73
2022-10-26T04:09:47.759Z,8.85
2022-10-26T04:10:47.755Z,8.79
2022-10-26T04:11:47.762Z,8.91
2022-10-26T04:12:47.740Z,8.81
2022-10-26T04:13:47.736Z,8.91
2022-10-26T04:14:47.715Z,8.88
2022-10-26T04:15:47.730Z,8.95
2022-10-26T04:16:47.704Z,9.02
2022-10-26T04:17:48.072Z,8.92
2022-10-26T04:18:47.678Z,8.95
2022-10-26T04:19:47.672Z,8.95
2022-10-26T04:20:47.661Z,9.06
2022-10-26T04:21:47.670Z,9.02
2022-10-26T04:22:47.665Z,9.13
2022-10-26T04:23:48.229Z,8.99
2022-10-26T04:24:47.634Z,8.97
2022-10-26T04:25:47.627Z,8.92
2022-10-26T04:26:47.613Z,9.03
2022-10-26T04:27:47.933Z,9.02
2022-10-26T04:28:47.600Z,8.95
2022-10-26T04:29:47.583Z,9.08
2022-10-26T04:30:47.593Z,8.97
2022-10-26T04:31:47.573Z,8.94
2022-10-26T04:32:47.785Z,8.97
2022-10-26T04:33:47.553Z,8.91
2022-10-26T04:34:47.540Z,9.00
2022-10-26T04:35:47.522Z,9.03
2022-10-26T04:36:48.530Z,9.00
2022-10-26T04:37:47.528Z,9.04
2022-10-26T04:38:47.518Z,9.02
2022-10-26T04:39:47.505Z,9.04
2022-10-26T04:40:47.508Z,9.00
2022-10-26T04:41:47.485Z,9.02
2022-10-26T04:42:47.991Z,9.03
2022-10-26T04:43:47.474Z,9.11
2022-10-26T04:44:47.475Z,9.03
2022-10-26T04:45:47.455Z,9.19
2022-10-26T04:46:47.451Z,9.10
2022-10-26T04:47:47.445Z,9.00
2022-10-26T04:48:47.444Z,9.10
2022-10-26T04:49:47.425Z,9.06
2022-10-26T04:50:47.413Z,9.11
2022-10-26T04:51:47.416Z,9.14
2022-10-26T04:52:47.732Z,9.14
2022-10-26T04:53:47.397Z,9.11
2022-10-26T04:54:47.391Z,9.21
2022-10-26T04:55:47.379Z,9.19
2022-10-26T04:57:47.716Z,9.19
2022-10-26T04:58:47.364Z,9.22
2022-10-26T04:59:47.351Z,9.14
2022-10-26T05:00:47.332Z,9.34
2022-10-26T05:01:47.675Z,9.18
2022-10-26T05:02:47.332Z,9.19
2022-10-26T05:03:47.319Z,9.25
2022-10-26T05:04:47.307Z,9.25
2022-10-26T05:05:47.310Z,9.19
2022-10-26T05:06:47.293Z,9.25
2022-10-26T05:07:47.589Z,9.18
2022-10-26T05:08:48.236Z,9.28
2022-10-26T05:09:47.273Z,9.19
2022-10-26T05:10:47.275Z,9.18
2022-10-26T05:11:47.237Z,9.21
2022-10-26T05:12:47.246Z,9.23
2022-10-26T05:13:47.233Z,9.22
2022-10-26T05:14:47.215Z,9.08
2022-10-26T05:15:47.216Z,9.13
2022-10-26T05:16:47.201Z,9.13
2022-10-26T05:17:47.542Z,9.04
2022-10-26T05:18:47.196Z,9.06
2022-10-26T05:19:47.168Z,9.16
2022-10-26T05:20:47.162Z,9.19
2022-10-26T05:21:47.163Z,9.22
2022-10-26T05:22:47.443Z,9.18
2022-10-26T05:23:47.161Z,9.19
2022-10-26T05:24:47.126Z,9.25
2022-10-26T05:25:47.144Z,9.21
2022-10-26T05:26:47.106Z,9.26
2022-10-26T05:27:47.105Z,9.22
2022-10-26T05:28:47.096Z,9.29
2022-10-26T05:29:47.103Z,9.34
2022-10-26T05:30:47.082Z,9.31
2022-10-26T05:31:47.068Z,9.25
2022-10-26T05:32:47.277Z,9.28
2022-10-26T05:33:47.051Z,9.25
2022-10-26T05:34:47.043Z,9.29
2022-10-26T05:35:47.033Z,9.26
2022-10-26T05:36:47.031Z,9.37
2022-10-26T05:37:47.031Z,9.41
2022-10-26T05:38:47.021Z,9.32
2022-10-26T05:39:47.020Z,9.21
2022-10-26T05:40:47.014Z,9.29
2022-10-26T05:41:46.994Z,9.32
2022-10-26T05:42:47.295Z,9.28
2022-10-26T05:43:46.977Z,9.29
2022-10-26T05:44:46.962Z,9.31
2022-10-26T05:45:46.951Z,9.39
2022-10-26T05:46:47.022Z,9.28
2022-10-26T05:47:47.229Z,9.40
2022-10-26T05:48:46.930Z,9.47
2022-10-26T05:49:46.916Z,9.40
2022-10-26T05:50:46.914Z,9.51
2022-10-26T05:51:46.908Z,9.46
2022-10-26T05:52:46.914Z,9.46
2022-10-26T05:53:46.907Z,9.40
2022-10-26T05:54:46.875Z,9.50
2022-10-26T05:55:46.872Z,9.47
2022-10-26T05:56:46.864Z,9.41
2022-10-26T05:57:47.235Z,9.48
2022-10-26T05:58:46.870Z,9.55
2022-10-26T05:59:46.843Z,9.44
2022-10-26T06:00:46.834Z,9.46
2022-10-26T06:01:46.920Z,9.43
2022-10-26T06:02:46.885Z,9.44
2022-10-26T06:03:46.820Z,9.44
2022-10-26T06:04:46.799Z,9.44
2022-10-26T06:05:46.787Z,9.44
2022-10-26T06:06:46.783Z,9.46
2022-10-26T06:07:47.119Z,9.43
2022-10-26T06:08:46.818Z,9.58
2022-10-26T06:09:46.757Z,9.56
2022-10-26T06:10:46.749Z,9.61
2022-10-26T06:11:46.805Z,9.58
2022-10-26T06:12:47.112Z,9.64
2022-10-26T06:13:46.721Z,9.59
2022-10-26T06:14:46.724Z,9.61
2022-10-26T06:15:46.710Z,9.58
2022-10-26T06:16:46.692Z,9.58
2022-10-26T06:17:47.688Z,9.64
2022-10-26T06:18:46.691Z,9.54
2022-10-26T06:19:46.691Z,9.65
2022-10-26T06:20:46.665Z,9.58
2022-10-26T06:21:46.660Z,9.56
2022-10-26T06:22:46.860Z,9.51
2022-10-26T06:23:46.637Z,9.56
2022-10-26T06:24:46.642Z,9.72
2022-10-26T06:25:46.624Z,9.65
2022-10-26T06:26:46.619Z,9.72
2022-10-26T06:27:46.606Z,9.66
2022-10-26T06:28:49.908Z,9.79
2022-10-26T06:29:46.592Z,9.74
2022-10-26T06:30:46.589Z,9.82
2022-10-26T06:31:46.580Z,9.84
2022-10-26T06:32:46.817Z,9.94
2022-10-26T06:33:46.581Z,9.94
2022-10-26T06:34:46.561Z,9.92
2022-10-26T06:35:46.570Z,9.98
2022-10-26T06:36:46.596Z,9.99
2022-10-26T06:37:46.704Z,10.04
2022-10-26T06:38:46.557Z,9.97
2022-10-26T06:39:48.797Z,9.99
2022-10-26T06:40:46.507Z,10.02
2022-10-26T06:41:46.498Z,9.98
2022-10-26T06:42:46.515Z,10.01
2022-10-26T06:43:46.513Z,10.01
2022-10-26T06:44:46.475Z,10.10
2022-10-26T06:45:46.469Z,10.05
2022-10-26T06:46:46.458Z,10.16
2022-10-26T06:47:46.625Z,10.10
2022-10-26T06:48:46.451Z,10.15
2022-10-26T06:49:46.431Z,10.17
2022-10-26T06:50:46.426Z,10.26
2022-10-26T06:51:46.425Z,10.19
2022-10-26T06:52:46.404Z,10.22
2022-10-26T06:53:46.403Z,10.30
2022-10-26T06:54:46.432Z,10.25
2022-10-26T06:55:46.380Z,10.26
2022-10-26T06:56:46.386Z,10.31
2022-10-26T06:57:46.479Z,10.38
2022-10-26T06:58:46.366Z,10.34
2022-10-26T06:59:46.359Z,10.34
2022-10-26T07:00:46.345Z,10.34
2022-10-26T07:01:46.451Z,10.34
2022-10-26T07:02:46.436Z,10.35
2022-10-26T07:03:46.353Z,10.35
2022-10-26T07:04:46.332Z,10.37
2022-10-26T07:05:46.301Z,10.38
2022-10-26T07:06:46.313Z,10.46
2022-10-26T07:07:46.625Z,10.51
2022-10-26T07:08:46.315Z,10.59
2022-10-26T07:09:46.287Z,10.72
2022-10-26T07:10:46.259Z,10.68
2022-10-26T07:11:46.258Z,10.63
2022-10-26T07:12:46.244Z,10.67
2022-10-26T07:13:46.245Z,10.63
2022-10-26T07:14:46.221Z,10.64
2022-10-26T07:15:46.216Z,10.59
2022-10-26T07:16:47.185Z,10.60
2022-10-26T07:17:46.234Z,10.56
2022-10-26T07:18:46.206Z,10.79
2022-10-26T07:19:46.189Z,10.68
2022-10-26T07:20:46.192Z,10.74
2022-10-26T07:21:46.167Z,10.79
2022-10-26T07:22:46.178Z,10.81
2022-10-26T07:23:46.173Z,10.84
2022-10-26T07:24:46.147Z,10.76
2022-10-26T07:25:46.144Z,10.74
2022-10-26T07:26:46.798Z,10.84
2022-10-26T07:27:46.309Z,10.82
2022-10-26T07:28:46.127Z,10.84
2022-10-26T07:29:46.802Z,10.96
2022-10-26T07:30:46.097Z,11.07
2022-10-26T07:31:46.158Z,11.07
2022-10-26T07:32:46.310Z,11.25
2022-10-26T07:33:46.074Z,11.08
2022-10-26T07:34:46.056Z,11.19
2022-10-26T07:35:46.055Z,11.17
2022-10-26T07:36:46.049Z,11.25
2022-10-26T07:37:46.048Z,11.32
2022-10-26T07:38:46.043Z,11.27
2022-10-26T07:39:46.019Z,11.36
2022-10-26T07:40:46.014Z,11.32
2022-10-26T07:41:46.001Z,11.33
2022-10-26T07:42:47.717Z,11.27
2022-10-26T07:43:45.992Z,11.25
2022-10-26T07:44:46.774Z,11.27
2022-10-26T07:45:45.964Z,11.26
2022-10-26T07:46:45.961Z,11.26
2022-10-26T07:47:45.965Z,11.30
2022-10-26T07:48:46.772Z,11.32
2022-10-26T07:49:45.939Z,11.27
2022-10-26T07:50:45.928Z,11.33
2022-10-26T07:51:45.922Z,11.40
2022-10-26T07:52:45.920Z,11.30
2022-10-26T07:53:45.916Z,11.33
2022-10-26T07:54:45.903Z,11.36
2022-10-26T07:55:45.894Z,11.35
2022-10-26T07:56:45.875Z,11.29
2022-10-26T07:57:47.595Z,11.17
2022-10-26T07:58:46.882Z,11.19
2022-10-26T07:59:45.888Z,11.22
2022-10-26T08:00:45.894Z,11.14
2022-10-26T08:01:46.753Z,11.22
2022-10-26T08:02:45.827Z,11.26
2022-10-26T08:03:45.843Z,11.19
2022-10-26T08:04:45.819Z,11.19
2022-10-26T08:05:45.825Z,11.25
2022-10-26T08:06:45.802Z,11.29
2022-10-26T08:07:46.007Z,11.30
2022-10-26T08:08:47.478Z,11.30
2022-10-26T08:09:45.777Z,11.32
2022-10-26T08:10:45.772Z,11.41
2022-10-26T08:11:45.758Z,11.47
2022-10-26T08:12:45.766Z,11.55
2022-10-26T08:13:45.807Z,11.48
2022-10-26T08:14:45.744Z,11.54
2022-10-26T08:15:45.738Z,11.55
2022-10-26T08:16:45.711Z,11.54
2022-10-26T08:18:52.556Z,11.57
2022-10-26T08:19:52.546Z,11.52
2022-10-26T08:20:52.546Z,11.62
2022-10-26T08:21:52.535Z,11.66
2022-10-26T08:22:53.617Z,11.72
2022-10-26T08:23:53.610Z,11.84
2022-10-26T08:24:53.595Z,11.70
2022-10-26T08:25:53.604Z,11.72
2022-10-26T08:26:53.599Z,11.66
2022-10-26T08:27:53.580Z,11.62
2022-10-26T08:30:00.417Z,11.52
2022-10-26T08:31:00.403Z,11.43
2022-10-26T08:32:01.269Z,11.36
2022-10-26T08:33:01.509Z,11.30
2022-10-26T08:34:01.474Z,11.35
2022-10-26T08:35:01.473Z,11.32
2022-10-26T08:36:02.373Z,11.25
2022-10-26T08:37:01.468Z,11.14
2022-10-26T08:38:01.457Z,11.08
2022-10-26T08:39:01.450Z,11.15
2022-10-26T08:40:03.007Z,11.23
2022-10-26T08:41:01.448Z,11.22
2022-10-26T08:42:01.432Z,11.32
2022-10-26T08:43:01.404Z,11.47
2022-10-26T08:44:01.402Z,11.47
2022-10-26T08:45:01.406Z,11.54
2022-10-26T08:46:01.472Z,11.52
2022-10-26T08:47:01.396Z,11.50
2022-10-26T08:48:02.279Z,11.66
2022-10-26T08:49:01.359Z,11.60
2022-10-26T08:50:01.364Z,11.77
2022-10-26T08:51:01.351Z,11.83
2022-10-26T08:52:01.337Z,11.81
2022-10-26T08:53:01.325Z,11.99
2022-10-26T08:54:01.868Z,12.06
2022-10-26T08:55:01.331Z,12.04
2022-10-26T08:56:01.350Z,12.17
2022-10-26T08:57:01.301Z,12.03
2022-10-26T08:58:01.293Z,12.04
2022-10-26T08:59:01.278Z,12.10
2022-10-26T09:00:01.276Z,12.15
2022-10-26T09:01:01.325Z,12.22
2022-10-26T09:02:01.316Z,12.18
2022-10-26T09:03:01.277Z,12.20
2022-10-26T09:05:01.271Z,12.39
2022-10-26T09:06:01.362Z,12.35
2022-10-26T09:07:01.225Z,12.46
2022-10-26T09:08:01.213Z,12.53
2022-10-26T09:09:01.200Z,12.46
2022-10-26T09:10:01.204Z,12.54
2022-10-26T09:11:01.786Z,12.54
2022-10-26T09:12:01.188Z,12.58
2022-10-26T09:13:01.180Z,12.62
2022-10-26T09:14:01.165Z,12.72
2022-10-26T09:15:01.145Z,12.70
2022-10-26T09:16:01.134Z,12.70
2022-10-26T09:17:01.143Z,12.80
2022-10-26T09:18:01.126Z,12.82
2022-10-26T09:19:02.785Z,12.90
2022-10-26T09:20:01.112Z,12.97
2022-10-26T09:21:01.101Z,12.86
2022-10-26T09:22:01.092Z,12.87
2022-10-26T09:23:01.086Z,13.00
2022-10-26T09:24:01.099Z,12.98
2022-10-26T09:25:05.339Z,13.03
2022-10-26T09:26:03.790Z,13.01
2022-10-26T09:28:01.044Z,12.97
2022-10-26T09:29:01.051Z,12.97
2022-10-26T09:30:01.024Z,13.00
2022-10-26T09:31:01.033Z,13.08
2022-10-26T09:32:01.006Z,12.98
2022-10-26T09:33:01.004Z,12.94
2022-10-26T09:34:01.001Z,12.95
2022-10-26T09:35:00.993Z,13.09
2022-10-26T09:36:00.980Z,13.16
2022-10-26T09:37:01.044Z,13.05
2022-10-26T09:38:00.975Z,13.15
2022-10-26T09:39:00.954Z,13.12
2022-10-26T09:40:00.948Z,13.16
2022-10-26T09:41:01.965Z,13.13
2022-10-26T09:42:01.797Z,13.23
2022-10-26T09:43:00.937Z,13.23
2022-10-26T09:44:00.943Z,13.31
2022-10-26T09:45:01.828Z,13.44
2022-10-26T09:46:00.920Z,13.46
2022-10-26T09:47:00.906Z,13.53
2022-10-26T09:48:03.918Z,13.54
2022-10-26T09:50:00.864Z,13.59
2022-10-26T09:51:03.741Z,13.72
2022-10-26T09:52:01.842Z,13.90
2022-10-26T09:53:00.837Z,13.93
2022-10-26T09:54:01.378Z,13.95
2022-10-26T09:55:00.926Z,14.18
2022-10-26T09:56:00.848Z,14.20
2022-10-26T09:57:00.810Z,14.32
2022-10-26T09:59:08.170Z,14.37
2022-10-26T10:00:08.156Z,14.50
2022-10-26T10:01:08.216Z,14.55
2022-10-26T10:02:08.130Z,14.63
2022-10-26T10:03:08.155Z,14.69
2022-10-26T10:04:09.214Z,14.81
2022-10-26T10:05:09.242Z,14.86
2022-10-26T10:06:09.188Z,14.94
2022-10-26T10:07:09.189Z,15.04
2022-10-26T10:08:09.167Z,15.11
2022-10-26T10:09:09.168Z,15.18
2022-10-26T10:10:09.168Z,15.22
2022-10-26T10:11:09.145Z,15.35
2022-10-26T10:12:09.154Z,15.42
2022-10-26T10:13:09.131Z,15.52
2022-10-26T10:14:09.173Z,15.68
2022-10-26T10:15:09.118Z,15.68
2022-10-26T10:16:09.107Z,15.73
2022-10-26T10:17:09.166Z,15.76
2022-10-26T10:18:09.101Z,15.82
2022-10-26T10:19:09.087Z,15.83
2022-10-26T10:20:09.081Z,15.79
2022-10-26T10:21:09.075Z,15.83
2022-10-26T10:22:09.053Z,15.86
2022-10-26T10:23:09.058Z,15.80
2022-10-26T10:24:09.040Z,15.70
2022-10-26T10:25:09.035Z,15.72
2022-10-26T10:26:09.059Z,15.68
2022-10-26T10:27:09.015Z,15.70
2022-10-26T10:28:09.038Z,15.73
2022-10-26T10:29:09.001Z,15.70
2022-10-26T10:30:08.993Z,15.72
2022-10-26T10:31:09.034Z,15.70
2022-10-26T10:32:11.522Z,15.79
2022-10-26T10:33:08.973Z,15.84
2022-10-26T10:34:09.517Z,15.77
2022-10-26T10:35:08.957Z,15.80
2022-10-26T10:36:08.979Z,15.83
2022-10-26T10:37:08.944Z,15.84
2022-10-26T10:38:08.921Z,15.95
2022-10-26T10:39:08.929Z,15.90
2022-10-26T10:40:08.916Z,15.97
2022-10-26T10:41:08.907Z,15.91
2022-10-26T10:42:08.891Z,15.92
2022-10-26T10:43:09.522Z,16.04
2022-10-26T10:44:08.889Z,16.16
2022-10-26T10:45:08.870Z,16.15
2022-10-26T10:46:08.879Z,16.12
2022-10-26T10:47:08.857Z,16.32
2022-10-26T10:48:08.847Z,16.39
2022-10-26T10:49:08.832Z,16.47
2022-10-26T10:50:08.841Z,16.54
2022-10-26T10:51:08.830Z,16.60
2022-10-26T10:52:08.810Z,16.65
2022-10-26T10:53:08.803Z,16.58
2022-10-26T10:54:08.804Z,16.66
2022-10-26T10:55:08.784Z,16.61
2022-10-26T10:56:11.450Z,16.58
2022-10-26T10:57:08.785Z,16.61
2022-10-26T10:58:08.761Z,16.60
2022-10-26T10:59:08.753Z,16.54
2022-10-26T11:00:08.795Z,16.60
2022-10-26T11:01:08.774Z,16.58
2022-10-26T11:02:08.889Z,16.57
2022-10-26T11:03:08.723Z,16.54
2022-10-26T11:04:08.746Z,16.57
2022-10-26T11:05:08.715Z,16.49
2022-10-26T11:06:08.707Z,16.56
2022-10-26T11:07:08.694Z,16.51
2022-10-26T11:08:08.679Z,16.64
2022-10-26T11:09:08.672Z,16.71
2022-10-26T11:10:08.665Z,16.86
2022-10-26T11:11:08.653Z,16.90
2022-10-26T11:12:08.657Z,17.06
2022-10-26T11:13:08.640Z,17.15
2022-10-26T11:14:08.630Z,17.30
2022-10-26T11:15:08.624Z,17.36
2022-10-26T11:16:08.623Z,17.59
2022-10-26T11:17:08.619Z,17.65
2022-10-26T11:18:08.599Z,17.79
2022-10-26T11:19:08.617Z,17.83
2022-10-26T11:20:12.502Z,17.97
2022-10-26T11:21:10.576Z,17.86
2022-10-26T11:22:08.573Z,17.74
2022-10-26T11:23:08.556Z,17.83
2022-10-26T11:24:08.560Z,17.76
2022-10-26T11:25:09.542Z,17.87
2022-10-26T11:26:08.527Z,17.87
2022-10-26T11:27:09.533Z,17.82
2022-10-26T11:28:08.516Z,17.78
2022-10-26T11:29:08.559Z,17.79
2022-10-26T11:30:08.509Z,17.68
2022-10-26T11:31:08.500Z,17.68
2022-10-26T11:32:08.496Z,17.64
2022-10-26T11:33:08.486Z,17.70
2022-10-26T11:34:08.469Z,17.64
2022-10-26T11:35:08.476Z,17.52
2022-10-26T11:36:08.467Z,17.59
2022-10-26T11:37:09.126Z,17.48
2022-10-26T11:38:08.446Z,17.44
2022-10-26T11:39:08.428Z,17.51
2022-10-26T11:40:08.425Z,17.46
2022-10-26T11:41:08.411Z,17.48
2022-10-26T11:42:08.405Z,17.42
2022-10-26T11:43:08.396Z,17.51
2022-10-26T11:44:08.422Z,17.51
2022-10-26T11:45:08.378Z,17.49
2022-10-26T11:46:08.369Z,17.46
2022-10-26T11:47:08.363Z,17.49
2022-10-26T11:48:08.354Z,17.44
2022-10-26T11:49:08.351Z,17.52
2022-10-26T11:50:09.606Z,17.60
2022-10-26T11:51:08.374Z,17.63
2022-10-26T11:52:08.332Z,17.60
2022-10-26T11:53:08.319Z,17.48
2022-10-26T11:54:08.366Z,17.60
2022-10-26T11:55:08.312Z,17.65
2022-10-26T11:56:08.300Z,17.64
2022-10-26T11:57:08.285Z,17.60
2022-10-26T11:58:08.282Z,17.80
2022-10-26T11:59:08.273Z,17.85
2022-10-26T12:00:08.263Z,17.89
2022-10-26T12:01:08.310Z,17.92
2022-10-26T12:02:08.238Z,18.03
2022-10-26T12:03:08.248Z,18.03
2022-10-26T12:04:08.231Z,18.05
2022-10-26T12:05:08.240Z,18.07
2022-10-26T12:06:08.218Z,18.15
2022-10-26T12:07:08.208Z,18.15
2022-10-26T12:08:08.206Z,18.20
2022-10-26T12:09:08.239Z,18.25
2022-10-26T12:10:08.185Z,18.08
2022-10-26T12:12:08.166Z,18.05
2022-10-26T12:13:08.160Z,18.07
2022-10-26T12:14:08.152Z,18.07
2022-10-26T12:15:08.148Z,18.11
2022-10-26T12:16:08.155Z,18.03
2022-10-26T12:17:08.131Z,18.00
2022-10-26T12:18:08.121Z,18.13
2022-10-26T12:19:08.118Z,18.15
2022-10-26T12:20:08.124Z,18.26
2022-10-26T12:21:08.102Z,18.29
2022-10-26T12:22:08.104Z,18.41
2022-10-26T12:23:08.097Z,18.43
2022-10-26T12:24:08.075Z,18.47
2022-10-26T12:25:13.899Z,18.56
2022-10-26T12:26:10.417Z,18.59
2022-10-26T12:27:08.052Z,18.70
2022-10-26T12:28:08.047Z,18.71
2022-10-26T12:29:08.044Z,18.71
2022-10-26T12:30:08.033Z,18.88
2022-10-26T12:31:08.037Z,18.73
2022-10-26T12:32:08.011Z,18.84
2022-10-26T12:33:08.636Z,18.81
2022-10-26T12:34:07.998Z,18.74
2022-10-26T12:35:08.047Z,18.81
2022-10-26T12:37:08.999Z,18.96
2022-10-26T12:38:07.969Z,19.07
2022-10-26T12:39:07.965Z,19.31
2022-10-26T12:40:07.951Z,19.26
2022-10-26T12:41:08.385Z,19.36
2022-10-26T12:42:07.943Z,19.44
2022-10-26T12:43:07.926Z,19.47
2022-10-26T12:44:10.022Z,19.59
2022-10-26T12:45:07.918Z,19.54
2022-10-26T12:46:07.913Z,19.48
2022-10-26T12:47:07.893Z,19.41
2022-10-26T12:48:15.662Z,19.44
2022-10-26T12:49:08.884Z,19.51
2022-10-26T12:50:07.861Z,19.51
2022-10-26T12:51:07.859Z,19.45
2022-10-26T12:52:07.858Z,19.39
2022-10-26T12:53:07.839Z,19.39
2022-10-26T12:54:08.636Z,19.21
2022-10-26T12:55:07.813Z,19.22
2022-10-26T12:56:08.856Z,19.19
2022-10-26T12:57:07.806Z,19.14
2022-10-26T12:58:07.802Z,19.16
2022-10-26T12:59:07.787Z,19.08
2022-10-26T13:00:07.905Z,19.21
2022-10-26T13:01:07.813Z,19.29
2022-10-26T13:02:07.780Z,19.34
2022-10-26T13:03:07.756Z,19.34
2022-10-26T13:04:07.756Z,19.41
2022-10-26T13:05:08.148Z,19.45
2022-10-26T13:06:07.734Z,19.62
2022-10-26T13:07:07.725Z,19.56
2022-10-26T13:08:07.726Z,19.62
2022-10-26T13:10:07.755Z,19.69
2022-10-26T13:11:07.719Z,19.54
2022-10-26T13:12:07.703Z,19.62
2022-10-26T13:13:07.675Z,19.56
2022-10-26T13:14:07.675Z,19.51
2022-10-26T13:15:07.671Z,19.47
2022-10-26T13:16:07.651Z,19.36
2022-10-26T13:17:07.644Z,19.44
2022-10-26T13:18:07.635Z,19.49
2022-10-26T13:19:07.633Z,19.37